sensor_id;sensor_type;location;lat;lon;timestamp;temperature;humidity
14733;DHT22;7457;50.960;6.830;2023-05-13T00:01:14;11.40;93.30
14733;DHT22;7457;50.960;6.830;2023-05-13T00:03:40;11.50;93.40
14733;DHT22;7457;50.960;6.830;2023-05-13T00:06:06;11.50;93.50
14733;DHT22;7457;50.960;6.830;2023-05-13T00:08:32;11.50;93.60
14733;DHT22;7457;50.960;6.830;2023-05-13T00:10:58;11.50;93.60
14733;DHT22;7457;50.960;6.830;2023-05-13T00:13:23;11.60;93.60
14733;DHT22;7457;50.960;6.830;2023-05-13T00:15:49;11.60;93.70
14733;DHT22;7457;50.960;6.830;2023-05-13T00:18:15;11.60;93.70
14733;DHT22;7457;50.960;6.830;2023-05-13T00:20:41;11.60;93.70
14733;DHT22;7457;50.960;6.830;2023-05-13T00:23:06;11.60;93.70
14733;DHT22;7457;50.960;6.830;2023-05-13T00:25:33;11.60;93.70
14733;DHT22;7457;50.960;6.830;2023-05-13T00:27:59;11.60;93.70
14733;DHT22;7457;50.960;6.830;2023-05-13T00:30:24;11.60;93.70
14733;DHT22;7457;50.960;6.830;2023-05-13T00:32:50;11.60;93.80
14733;DHT22;7457;50.960;6.830;2023-05-13T00:35:16;11.60;93.70
14733;DHT22;7457;50.960;6.830;2023-05-13T00:37:42;11.60;93.70
14733;DHT22;7457;50.960;6.830;2023-05-13T00:40:23;11.50;93.70
14733;DHT22;7457;50.960;6.830;2023-05-13T00:42:50;11.50;93.70
14733;DHT22;7457;50.960;6.830;2023-05-13T00:45:16;11.40;93.60
14733;DHT22;7457;50.960;6.830;2023-05-13T00:47:42;11.40;93.50
14733;DHT22;7457;50.960;6.830;2023-05-13T00:50:12;11.30;93.60
14733;DHT22;7457;50.960;6.830;2023-05-13T00:52:39;11.30;93.70
14733;DHT22;7457;50.960;6.830;2023-05-13T00:55:06;11.20;93.70
14733;DHT22;7457;50.960;6.830;2023-05-13T00:57:32;11.10;93.90
14733;DHT22;7457;50.960;6.830;2023-05-13T00:59:59;11.10;94.00
14733;DHT22;7457;50.960;6.830;2023-05-13T01:02:44;11.10;94.20
14733;DHT22;7457;50.960;6.830;2023-05-13T01:05:47;11.10;94.40
14733;DHT22;7457;50.960;6.830;2023-05-13T01:11:03;11.00;94.60
14733;DHT22;7457;50.960;6.830;2023-05-13T01:13:33;11.00;94.60
14733;DHT22;7457;50.960;6.830;2023-05-13T01:16:11;11.00;94.70
14733;DHT22;7457;50.960;6.830;2023-05-13T01:18:44;11.00;94.90
14733;DHT22;7457;50.960;6.830;2023-05-13T01:21:11;11.00;94.90
14733;DHT22;7457;50.960;6.830;2023-05-13T01:23:37;11.00;94.90
14733;DHT22;7457;50.960;6.830;2023-05-13T01:26:03;11.00;94.90
14733;DHT22;7457;50.960;6.830;2023-05-13T01:28:29;11.00;94.80
14733;DHT22;7457;50.960;6.830;2023-05-13T01:30:55;11.00;94.70
14733;DHT22;7457;50.960;6.830;2023-05-13T01:33:22;11.00;94.60
14733;DHT22;7457;50.960;6.830;2023-05-13T01:35:48;10.90;94.60
14733;DHT22;7457;50.960;6.830;2023-05-13T01:38:14;10.90;94.60
14733;DHT22;7457;50.960;6.830;2023-05-13T01:40:40;10.80;94.70
14733;DHT22;7457;50.960;6.830;2023-05-13T01:43:07;10.80;94.80
14733;DHT22;7457;50.960;6.830;2023-05-13T01:45:32;10.80;95.00
14733;DHT22;7457;50.960;6.830;2023-05-13T01:47:58;10.80;95.10
14733;DHT22;7457;50.960;6.830;2023-05-13T01:50:24;10.80;95.10
14733;DHT22;7457;50.960;6.830;2023-05-13T01:52:50;10.80;95.00
14733;DHT22;7457;50.960;6.830;2023-05-13T01:55:16;10.70;94.90
14733;DHT22;7457;50.960;6.830;2023-05-13T01:57:41;10.60;94.90
14733;DHT22;7457;50.960;6.830;2023-05-13T02:00:07;10.60;95.00
14733;DHT22;7457;50.960;6.830;2023-05-13T02:02:33;10.50;95.20
14733;DHT22;7457;50.960;6.830;2023-05-13T02:05:00;10.60;95.40
14733;DHT22;7457;50.960;6.830;2023-05-13T02:10:02;10.50;95.70
14733;DHT22;7457;50.960;6.830;2023-05-13T02:12:28;10.50;95.60
14733;DHT22;7457;50.960;6.830;2023-05-13T02:14:54;10.50;95.60
14733;DHT22;7457;50.960;6.830;2023-05-13T02:17:20;10.50;95.60
14733;DHT22;7457;50.960;6.830;2023-05-13T02:19:46;10.40;95.60
14733;DHT22;7457;50.960;6.830;2023-05-13T02:22:11;10.40;95.70
14733;DHT22;7457;50.960;6.830;2023-05-13T02:24:38;10.40;95.70
14733;DHT22;7457;50.960;6.830;2023-05-13T02:27:05;10.40;95.90
14733;DHT22;7457;50.960;6.830;2023-05-13T02:29:31;10.40;95.90
14733;DHT22;7457;50.960;6.830;2023-05-13T02:31:57;10.40;96.00
14733;DHT22;7457;50.960;6.830;2023-05-13T02:34:23;10.30;95.90
14733;DHT22;7457;50.960;6.830;2023-05-13T02:36:48;10.30;96.00
14733;DHT22;7457;50.960;6.830;2023-05-13T02:39:14;10.30;95.90
14733;DHT22;7457;50.960;6.830;2023-05-13T02:41:40;10.30;95.90
14733;DHT22;7457;50.960;6.830;2023-05-13T02:44:05;10.30;96.00
14733;DHT22;7457;50.960;6.830;2023-05-13T02:46:31;10.20;96.10
14733;DHT22;7457;50.960;6.830;2023-05-13T02:48:57;10.30;96.20
14733;DHT22;7457;50.960;6.830;2023-05-13T02:51:24;10.30;96.20
14733;DHT22;7457;50.960;6.830;2023-05-13T02:53:49;10.30;96.20
14733;DHT22;7457;50.960;6.830;2023-05-13T02:56:16;10.30;96.20
14733;DHT22;7457;50.960;6.830;2023-05-13T02:58:41;10.30;96.10
14733;DHT22;7457;50.960;6.830;2023-05-13T03:01:07;10.20;96.00
14733;DHT22;7457;50.960;6.830;2023-05-13T03:03:33;10.20;96.00
14733;DHT22;7457;50.960;6.830;2023-05-13T03:05:59;10.10;96.00
14733;DHT22;7457;50.960;6.830;2023-05-13T03:08:24;10.10;96.20
14733;DHT22;7457;50.960;6.830;2023-05-13T03:10:50;10.10;96.20
14733;DHT22;7457;50.960;6.830;2023-05-13T03:13:16;10.10;96.30
14733;DHT22;7457;50.960;6.830;2023-05-13T03:15:41;10.00;96.30
14733;DHT22;7457;50.960;6.830;2023-05-13T03:18:07;10.00;96.40
14733;DHT22;7457;50.960;6.830;2023-05-13T03:20:33;10.00;96.50
14733;DHT22;7457;50.960;6.830;2023-05-13T03:22:58;10.00;96.60
14733;DHT22;7457;50.960;6.830;2023-05-13T03:25:24;10.00;96.70
14733;DHT22;7457;50.960;6.830;2023-05-13T03:27:49;10.00;96.80
14733;DHT22;7457;50.960;6.830;2023-05-13T03:30:15;10.00;97.00
14733;DHT22;7457;50.960;6.830;2023-05-13T03:32:41;10.00;97.10
14733;DHT22;7457;50.960;6.830;2023-05-13T03:35:07;10.00;97.20
14733;DHT22;7457;50.960;6.830;2023-05-13T03:37:32;10.00;97.30
14733;DHT22;7457;50.960;6.830;2023-05-13T03:39:58;10.00;97.30
14733;DHT22;7457;50.960;6.830;2023-05-13T03:42:24;10.00;97.40
14733;DHT22;7457;50.960;6.830;2023-05-13T03:44:50;10.00;97.50
14733;DHT22;7457;50.960;6.830;2023-05-13T03:47:16;10.00;97.50
14733;DHT22;7457;50.960;6.830;2023-05-13T03:49:41;10.00;97.60
14733;DHT22;7457;50.960;6.830;2023-05-13T03:52:07;10.00;97.70
14733;DHT22;7457;50.960;6.830;2023-05-13T03:54:33;10.00;97.70
14733;DHT22;7457;50.960;6.830;2023-05-13T03:56:59;10.00;97.80
14733;DHT22;7457;50.960;6.830;2023-05-13T03:59:25;10.00;97.90
14733;DHT22;7457;50.960;6.830;2023-05-13T04:01:50;10.00;98.00
14733;DHT22;7457;50.960;6.830;2023-05-13T04:04:16;10.00;98.20
14733;DHT22;7457;50.960;6.830;2023-05-13T04:06:41;10.00;98.30
14733;DHT22;7457;50.960;6.830;2023-05-13T04:09:07;9.90;98.20
14733;DHT22;7457;50.960;6.830;2023-05-13T04:11:33;9.90;98.30
14733;DHT22;7457;50.960;6.830;2023-05-13T04:13:58;9.90;98.50
14733;DHT22;7457;50.960;6.830;2023-05-13T04:16:24;9.90;98.70
14733;DHT22;7457;50.960;6.830;2023-05-13T04:18:50;9.90;98.80
14733;DHT22;7457;50.960;6.830;2023-05-13T04:21:15;9.90;98.90
14733;DHT22;7457;50.960;6.830;2023-05-13T04:23:41;10.00;99.10
14733;DHT22;7457;50.960;6.830;2023-05-13T04:26:07;10.00;99.40
14733;DHT22;7457;50.960;6.830;2023-05-13T04:28:33;10.00;99.50
14733;DHT22;7457;50.960;6.830;2023-05-13T04:30:59;10.10;99.80
14733;DHT22;7457;50.960;6.830;2023-05-13T04:33:25;10.20;100.00
14733;DHT22;7457;50.960;6.830;2023-05-13T04:35:51;10.40;100.00
14733;DHT22;7457;50.960;6.830;2023-05-13T04:38:16;10.80;100.00
14733;DHT22;7457;50.960;6.830;2023-05-13T04:40:43;11.20;99.60
14733;DHT22;7457;50.960;6.830;2023-05-13T04:43:10;11.70;98.70
14733;DHT22;7457;50.960;6.830;2023-05-13T04:45:36;12.00;97.70
14733;DHT22;7457;50.960;6.830;2023-05-13T04:48:02;12.20;97.30
14733;DHT22;7457;50.960;6.830;2023-05-13T04:50:28;12.40;97.70
14733;DHT22;7457;50.960;6.830;2023-05-13T04:52:54;12.70;97.80
14733;DHT22;7457;50.960;6.830;2023-05-13T04:55:20;13.00;97.10
14733;DHT22;7457;50.960;6.830;2023-05-13T04:57:46;13.30;96.70
14733;DHT22;7457;50.960;6.830;2023-05-13T05:00:12;13.50;96.20
14733;DHT22;7457;50.960;6.830;2023-05-13T05:02:38;13.80;95.50
14733;DHT22;7457;50.960;6.830;2023-05-13T05:05:04;13.90;94.50
14733;DHT22;7457;50.960;6.830;2023-05-13T05:07:30;14.00;94.40
14733;DHT22;7457;50.960;6.830;2023-05-13T05:09:55;14.10;93.90
14733;DHT22;7457;50.960;6.830;2023-05-13T05:12:21;14.20;93.10
14733;DHT22;7457;50.960;6.830;2023-05-13T05:14:47;14.20;92.60
14733;DHT22;7457;50.960;6.830;2023-05-13T05:17:12;14.10;92.30
14733;DHT22;7457;50.960;6.830;2023-05-13T05:19:38;14.00;92.20
14733;DHT22;7457;50.960;6.830;2023-05-13T05:22:04;14.00;92.40
14733;DHT22;7457;50.960;6.830;2023-05-13T05:24:29;13.90;92.40
14733;DHT22;7457;50.960;6.830;2023-05-13T05:26:55;14.00;92.60
14733;DHT22;7457;50.960;6.830;2023-05-13T05:29:21;14.10;92.30
14733;DHT22;7457;50.960;6.830;2023-05-13T05:31:47;14.20;91.80
14733;DHT22;7457;50.960;6.830;2023-05-13T05:34:13;14.30;92.20
14733;DHT22;7457;50.960;6.830;2023-05-13T05:36:38;14.50;92.00
14733;DHT22;7457;50.960;6.830;2023-05-13T05:39:04;14.70;91.20
14733;DHT22;7457;50.960;6.830;2023-05-13T05:41:30;14.80;92.50
14733;DHT22;7457;50.960;6.830;2023-05-13T05:43:56;15.10;89.80
14733;DHT22;7457;50.960;6.830;2023-05-13T05:46:22;14.90;88.80
14733;DHT22;7457;50.960;6.830;2023-05-13T05:48:48;14.80;89.10
14733;DHT22;7457;50.960;6.830;2023-05-13T05:51:13;14.80;89.40
14733;DHT22;7457;50.960;6.830;2023-05-13T05:53:39;14.80;89.70
14733;DHT22;7457;50.960;6.830;2023-05-13T05:56:05;14.90;89.90
14733;DHT22;7457;50.960;6.830;2023-05-13T05:58:31;15.00;89.60
14733;DHT22;7457;50.960;6.830;2023-05-13T06:00:57;15.10;89.00
14733;DHT22;7457;50.960;6.830;2023-05-13T06:03:25;15.10;89.00
14733;DHT22;7457;50.960;6.830;2023-05-13T06:05:51;15.30;88.90
14733;DHT22;7457;50.960;6.830;2023-05-13T06:08:16;15.40;88.40
14733;DHT22;7457;50.960;6.830;2023-05-13T06:10:43;15.60;88.20
14733;DHT22;7457;50.960;6.830;2023-05-13T06:13:08;15.80;87.90
14733;DHT22;7457;50.960;6.830;2023-05-13T06:15:35;16.00;87.10
14733;DHT22;7457;50.960;6.830;2023-05-13T06:18:00;16.10;86.80
14733;DHT22;7457;50.960;6.830;2023-05-13T06:20:30;16.20;86.70
14733;DHT22;7457;50.960;6.830;2023-05-13T06:22:55;16.40;86.40
14733;DHT22;7457;50.960;6.830;2023-05-13T06:25:21;16.60;85.90
14733;DHT22;7457;50.960;6.830;2023-05-13T06:27:47;16.90;85.40
14733;DHT22;7457;50.960;6.830;2023-05-13T06:30:12;17.00;84.80
14733;DHT22;7457;50.960;6.830;2023-05-13T06:32:38;17.30;84.20
14733;DHT22;7457;50.960;6.830;2023-05-13T06:35:04;17.50;83.00
14733;DHT22;7457;50.960;6.830;2023-05-13T06:37:29;17.60;82.20
14733;DHT22;7457;50.960;6.830;2023-05-13T06:39:55;17.60;81.90
14733;DHT22;7457;50.960;6.830;2023-05-13T06:42:21;17.80;81.60
14733;DHT22;7457;50.960;6.830;2023-05-13T06:44:46;18.10;80.60
14733;DHT22;7457;50.960;6.830;2023-05-13T06:47:12;18.20;79.90
14733;DHT22;7457;50.960;6.830;2023-05-13T06:49:40;18.40;79.30
14733;DHT22;7457;50.960;6.830;2023-05-13T06:52:07;18.30;78.50
14733;DHT22;7457;50.960;6.830;2023-05-13T06:54:33;18.20;78.40
14733;DHT22;7457;50.960;6.830;2023-05-13T06:56:58;18.30;79.00
14733;DHT22;7457;50.960;6.830;2023-05-13T06:59:24;18.80;78.70
14733;DHT22;7457;50.960;6.830;2023-05-13T07:01:50;19.40;77.60
14733;DHT22;7457;50.960;6.830;2023-05-13T07:04:15;19.90;76.10
14733;DHT22;7457;50.960;6.830;2023-05-13T07:06:41;20.10;74.90
14733;DHT22;7457;50.960;6.830;2023-05-13T07:09:07;20.00;74.90
14733;DHT22;7457;50.960;6.830;2023-05-13T07:11:34;20.00;74.60
14733;DHT22;7457;50.960;6.830;2023-05-13T07:14:00;20.00;74.30
14733;DHT22;7457;50.960;6.830;2023-05-13T07:16:26;19.80;74.60
14733;DHT22;7457;50.960;6.830;2023-05-13T07:18:51;19.70;74.80
14733;DHT22;7457;50.960;6.830;2023-05-13T07:21:19;19.80;74.70
14733;DHT22;7457;50.960;6.830;2023-05-13T07:23:44;19.70;74.50
14733;DHT22;7457;50.960;6.830;2023-05-13T07:26:10;19.60;74.50
14733;DHT22;7457;50.960;6.830;2023-05-13T07:28:36;19.40;74.60
14733;DHT22;7457;50.960;6.830;2023-05-13T07:31:03;19.30;75.20
14733;DHT22;7457;50.960;6.830;2023-05-13T07:33:29;19.10;75.50
14733;DHT22;7457;50.960;6.830;2023-05-13T07:35:56;19.00;76.20
14733;DHT22;7457;50.960;6.830;2023-05-13T07:38:21;19.00;75.80
14733;DHT22;7457;50.960;6.830;2023-05-13T07:40:47;18.90;75.80
14733;DHT22;7457;50.960;6.830;2023-05-13T07:43:13;18.80;75.40
14733;DHT22;7457;50.960;6.830;2023-05-13T07:45:38;18.80;75.70
14733;DHT22;7457;50.960;6.830;2023-05-13T07:48:04;18.70;75.70
14733;DHT22;7457;50.960;6.830;2023-05-13T07:50:31;18.60;75.50
14733;DHT22;7457;50.960;6.830;2023-05-13T07:52:56;18.60;75.70
14733;DHT22;7457;50.960;6.830;2023-05-13T07:55:22;18.90;75.70
14733;DHT22;7457;50.960;6.830;2023-05-13T07:57:48;19.10;74.90
14733;DHT22;7457;50.960;6.830;2023-05-13T08:00:14;19.20;74.50
14733;DHT22;7457;50.960;6.830;2023-05-13T08:02:41;19.20;73.60
14733;DHT22;7457;50.960;6.830;2023-05-13T08:05:08;19.10;72.50
14733;DHT22;7457;50.960;6.830;2023-05-13T08:07:34;18.80;73.00
14733;DHT22;7457;50.960;6.830;2023-05-13T08:09:59;18.60;73.80
14733;DHT22;7457;50.960;6.830;2023-05-13T08:12:25;18.50;74.40
14733;DHT22;7457;50.960;6.830;2023-05-13T08:14:51;18.40;74.90
14733;DHT22;7457;50.960;6.830;2023-05-13T08:17:17;18.40;75.40
14733;DHT22;7457;50.960;6.830;2023-05-13T08:19:44;18.40;75.70
14733;DHT22;7457;50.960;6.830;2023-05-13T08:22:10;18.50;75.60
14733;DHT22;7457;50.960;6.830;2023-05-13T08:24:36;18.60;75.40
14733;DHT22;7457;50.960;6.830;2023-05-13T08:27:02;18.60;75.10
14733;DHT22;7457;50.960;6.830;2023-05-13T08:29:28;18.60;75.10
14733;DHT22;7457;50.960;6.830;2023-05-13T08:31:54;18.60;75.00
14733;DHT22;7457;50.960;6.830;2023-05-13T08:34:20;18.60;75.20
14733;DHT22;7457;50.960;6.830;2023-05-13T08:36:45;18.70;75.20
14733;DHT22;7457;50.960;6.830;2023-05-13T08:39:11;18.70;75.20
14733;DHT22;7457;50.960;6.830;2023-05-13T08:41:38;18.80;75.70
14733;DHT22;7457;50.960;6.830;2023-05-13T08:44:05;19.10;75.80
14733;DHT22;7457;50.960;6.830;2023-05-13T08:46:32;19.40;76.00
14733;DHT22;7457;50.960;6.830;2023-05-13T08:49:02;19.80;73.90
14733;DHT22;7457;50.960;6.830;2023-05-13T08:51:28;20.20;75.00
14733;DHT22;7457;50.960;6.830;2023-05-13T08:53:54;20.90;73.80
14733;DHT22;7457;50.960;6.830;2023-05-13T08:56:20;21.50;72.10
14733;DHT22;7457;50.960;6.830;2023-05-13T08:58:53;22.20;71.10
14733;DHT22;7457;50.960;6.830;2023-05-13T09:01:18;22.60;69.70
14733;DHT22;7457;50.960;6.830;2023-05-13T09:03:58;22.80;67.90
14733;DHT22;7457;50.960;6.830;2023-05-13T09:06:25;23.20;66.90
14733;DHT22;7457;50.960;6.830;2023-05-13T09:08:51;23.60;66.40
14733;DHT22;7457;50.960;6.830;2023-05-13T09:11:17;24.10;65.00
14733;DHT22;7457;50.960;6.830;2023-05-13T09:13:43;24.70;63.10
14733;DHT22;7457;50.960;6.830;2023-05-13T09:16:09;25.20;62.40
14733;DHT22;7457;50.960;6.830;2023-05-13T09:18:37;25.70;61.30
14733;DHT22;7457;50.960;6.830;2023-05-13T09:21:26;26.20;60.50
14733;DHT22;7457;50.960;6.830;2023-05-13T09:26:33;26.70;58.30
14733;DHT22;7457;50.960;6.830;2023-05-13T09:29:15;26.80;58.20
14733;DHT22;7457;50.960;6.830;2023-05-13T09:31:43;27.00;56.90
14733;DHT22;7457;50.960;6.830;2023-05-13T09:34:09;27.10;57.40
14733;DHT22;7457;50.960;6.830;2023-05-13T09:36:34;27.30;57.10
14733;DHT22;7457;50.960;6.830;2023-05-13T09:39:02;27.60;56.40
14733;DHT22;7457;50.960;6.830;2023-05-13T09:41:29;27.90;55.90
14733;DHT22;7457;50.960;6.830;2023-05-13T09:43:56;28.10;54.80
14733;DHT22;7457;50.960;6.830;2023-05-13T09:46:22;28.10;54.50
14733;DHT22;7457;50.960;6.830;2023-05-13T09:48:49;28.10;52.20
14733;DHT22;7457;50.960;6.830;2023-05-13T09:51:25;27.70;53.40
14733;DHT22;7457;50.960;6.830;2023-05-13T09:53:51;27.60;54.40
14733;DHT22;7457;50.960;6.830;2023-05-13T09:56:19;27.20;52.40
14733;DHT22;7457;50.960;6.830;2023-05-13T09:58:55;26.60;53.80
14733;DHT22;7457;50.960;6.830;2023-05-13T10:01:21;26.10;55.10
14733;DHT22;7457;50.960;6.830;2023-05-13T10:03:47;26.10;57.20
14733;DHT22;7457;50.960;6.830;2023-05-13T10:06:15;26.30;56.80
14733;DHT22;7457;50.960;6.830;2023-05-13T10:08:46;26.70;56.60
14733;DHT22;7457;50.960;6.830;2023-05-13T10:11:12;27.10;55.80
14733;DHT22;7457;50.960;6.830;2023-05-13T10:13:40;27.60;54.60
14733;DHT22;7457;50.960;6.830;2023-05-13T10:16:07;27.70;53.70
14733;DHT22;7457;50.960;6.830;2023-05-13T10:18:33;27.70;53.60
14733;DHT22;7457;50.960;6.830;2023-05-13T10:21:01;27.70;53.10
14733;DHT22;7457;50.960;6.830;2023-05-13T10:23:28;27.70;52.60
14733;DHT22;7457;50.960;6.830;2023-05-13T10:25:54;27.80;53.30
14733;DHT22;7457;50.960;6.830;2023-05-13T10:28:20;28.00;53.10
14733;DHT22;7457;50.960;6.830;2023-05-13T10:30:49;28.10;52.70
14733;DHT22;7457;50.960;6.830;2023-05-13T10:33:15;28.20;51.90
14733;DHT22;7457;50.960;6.830;2023-05-13T10:35:47;28.30;52.60
14733;DHT22;7457;50.960;6.830;2023-05-13T10:38:27;28.40;52.50
14733;DHT22;7457;50.960;6.830;2023-05-13T10:43:33;28.50;52.40
14733;DHT22;7457;50.960;6.830;2023-05-13T10:46:07;28.60;52.10
14733;DHT22;7457;50.960;6.830;2023-05-13T10:48:45;28.70;52.00
14733;DHT22;7457;50.960;6.830;2023-05-13T10:51:15;28.70;51.20
14733;DHT22;7457;50.960;6.830;2023-05-13T10:53:54;28.60;51.20
14733;DHT22;7457;50.960;6.830;2023-05-13T10:56:21;28.40;50.70
14733;DHT22;7457;50.960;6.830;2023-05-13T10:59:03;28.10;51.10
14733;DHT22;7457;50.960;6.830;2023-05-13T11:01:33;27.70;50.30
14733;DHT22;7457;50.960;6.830;2023-05-13T11:04:01;27.20;50.70
14733;DHT22;7457;50.960;6.830;2023-05-13T11:06:37;26.50;50.60
14733;DHT22;7457;50.960;6.830;2023-05-13T11:09:11;25.60;52.00
14733;DHT22;7457;50.960;6.830;2023-05-13T11:11:37;25.00;53.50
14733;DHT22;7457;50.960;6.830;2023-05-13T11:14:26;24.50;54.40
14733;DHT22;7457;50.960;6.830;2023-05-13T11:19:45;23.70;56.70
14733;DHT22;7457;50.960;6.830;2023-05-13T11:22:19;23.50;57.90
14733;DHT22;7457;50.960;6.830;2023-05-13T11:25:06;23.70;59.10
14733;DHT22;7457;50.960;6.830;2023-05-13T11:27:40;24.40;57.50
14733;DHT22;7457;50.960;6.830;2023-05-13T11:30:20;24.90;57.90
14733;DHT22;7457;50.960;6.830;2023-05-13T11:32:56;25.10;55.10
14733;DHT22;7457;50.960;6.830;2023-05-13T11:37:48;24.40;54.10
14733;DHT22;7457;50.960;6.830;2023-05-13T11:40:27;23.70;54.10
14733;DHT22;7457;50.960;6.830;2023-05-13T11:42:54;23.10;54.80
14733;DHT22;7457;50.960;6.830;2023-05-13T11:45:22;22.40;55.50
14733;DHT22;7457;50.960;6.830;2023-05-13T11:47:48;21.80;53.10
14733;DHT22;7457;50.960;6.830;2023-05-13T11:50:21;21.00;50.80
14733;DHT22;7457;50.960;6.830;2023-05-13T11:52:51;20.10;50.70
14733;DHT22;7457;50.960;6.830;2023-05-13T11:55:33;19.50;52.50
14733;DHT22;7457;50.960;6.830;2023-05-13T11:58:01;18.90;53.50
14733;DHT22;7457;50.960;6.830;2023-05-13T12:00:27;18.40;54.10
14733;DHT22;7457;50.960;6.830;2023-05-13T12:02:53;18.10;55.10
14733;DHT22;7457;50.960;6.830;2023-05-13T12:05:19;17.90;56.20
14733;DHT22;7457;50.960;6.830;2023-05-13T12:07:45;17.80;56.90
14733;DHT22;7457;50.960;6.830;2023-05-13T12:10:11;17.80;57.40
14733;DHT22;7457;50.960;6.830;2023-05-13T12:12:39;17.80;57.90
14733;DHT22;7457;50.960;6.830;2023-05-13T12:15:14;17.70;58.30
14733;DHT22;7457;50.960;6.830;2023-05-13T12:17:41;17.60;58.80
14733;DHT22;7457;50.960;6.830;2023-05-13T12:27:58;17.60;61.90
14733;DHT22;7457;50.960;6.830;2023-05-13T12:30:24;17.60;62.30
14733;DHT22;7457;50.960;6.830;2023-05-13T12:32:50;17.60;63.00
14733;DHT22;7457;50.960;6.830;2023-05-13T12:35:15;17.80;63.10
14733;DHT22;7457;50.960;6.830;2023-05-13T12:37:41;17.90;62.50
14733;DHT22;7457;50.960;6.830;2023-05-13T12:40:10;18.10;62.20
14733;DHT22;7457;50.960;6.830;2023-05-13T12:42:36;18.40;61.60
14733;DHT22;7457;50.960;6.830;2023-05-13T12:45:02;18.50;61.00
14733;DHT22;7457;50.960;6.830;2023-05-13T12:47:29;18.70;60.50
14733;DHT22;7457;50.960;6.830;2023-05-13T12:49:56;18.80;60.50
14733;DHT22;7457;50.960;6.830;2023-05-13T12:52:23;18.90;59.90
14733;DHT22;7457;50.960;6.830;2023-05-13T12:54:49;18.90;59.60
14733;DHT22;7457;50.960;6.830;2023-05-13T12:57:15;19.00;59.90
14733;DHT22;7457;50.960;6.830;2023-05-13T12:59:42;19.20;59.60
14733;DHT22;7457;50.960;6.830;2023-05-13T13:02:08;19.30;59.30
14733;DHT22;7457;50.960;6.830;2023-05-13T13:04:34;19.40;58.60
14733;DHT22;7457;50.960;6.830;2023-05-13T13:07:00;19.40;58.70
14733;DHT22;7457;50.960;6.830;2023-05-13T13:09:26;19.50;58.70
14733;DHT22;7457;50.960;6.830;2023-05-13T13:11:51;19.50;58.50
14733;DHT22;7457;50.960;6.830;2023-05-13T13:14:17;19.60;58.70
14733;DHT22;7457;50.960;6.830;2023-05-13T13:16:42;19.70;59.10
14733;DHT22;7457;50.960;6.830;2023-05-13T13:19:08;19.90;59.00
14733;DHT22;7457;50.960;6.830;2023-05-13T13:21:34;20.10;59.10
14733;DHT22;7457;50.960;6.830;2023-05-13T13:24:00;20.30;58.70
14733;DHT22;7457;50.960;6.830;2023-05-13T13:26:25;20.50;58.20
14733;DHT22;7457;50.960;6.830;2023-05-13T13:28:51;20.70;57.80
14733;DHT22;7457;50.960;6.830;2023-05-13T13:31:17;20.80;56.50
14733;DHT22;7457;50.960;6.830;2023-05-13T13:33:43;20.90;56.00
14733;DHT22;7457;50.960;6.830;2023-05-13T13:36:08;20.90;55.70
14733;DHT22;7457;50.960;6.830;2023-05-13T13:38:34;20.90;55.90
14733;DHT22;7457;50.960;6.830;2023-05-13T13:40:59;20.80;55.30
14733;DHT22;7457;50.960;6.830;2023-05-13T13:43:25;20.80;55.40
14733;DHT22;7457;50.960;6.830;2023-05-13T13:45:52;20.90;54.70
14733;DHT22;7457;50.960;6.830;2023-05-13T13:48:17;20.90;55.40
14733;DHT22;7457;50.960;6.830;2023-05-13T13:50:43;21.10;55.90
14733;DHT22;7457;50.960;6.830;2023-05-13T13:53:08;21.20;56.10
14733;DHT22;7457;50.960;6.830;2023-05-13T13:55:35;21.30;56.40
14733;DHT22;7457;50.960;6.830;2023-05-13T13:58:01;21.30;57.00
14733;DHT22;7457;50.960;6.830;2023-05-13T14:00:26;21.40;55.90
14733;DHT22;7457;50.960;6.830;2023-05-13T14:02:52;21.50;55.40
14733;DHT22;7457;50.960;6.830;2023-05-13T14:05:18;21.60;55.30
14733;DHT22;7457;50.960;6.830;2023-05-13T14:07:44;21.70;54.40
14733;DHT22;7457;50.960;6.830;2023-05-13T14:10:10;21.80;53.90
14733;DHT22;7457;50.960;6.830;2023-05-13T14:12:37;22.00;54.30
14733;DHT22;7457;50.960;6.830;2023-05-13T14:15:02;22.00;53.30
14733;DHT22;7457;50.960;6.830;2023-05-13T14:17:28;22.10;52.80
14733;DHT22;7457;50.960;6.830;2023-05-13T14:19:54;22.10;52.70
14733;DHT22;7457;50.960;6.830;2023-05-13T14:22:21;22.10;51.90
14733;DHT22;7457;50.960;6.830;2023-05-13T14:24:47;22.10;51.70
14733;DHT22;7457;50.960;6.830;2023-05-13T14:27:13;22.00;52.00
14733;DHT22;7457;50.960;6.830;2023-05-13T14:29:39;21.80;52.70
14733;DHT22;7457;50.960;6.830;2023-05-13T14:32:04;21.60;52.70
14733;DHT22;7457;50.960;6.830;2023-05-13T14:34:32;21.50;53.50
14733;DHT22;7457;50.960;6.830;2023-05-13T14:36:58;21.50;53.60
14733;DHT22;7457;50.960;6.830;2023-05-13T14:39:24;21.50;54.50
14733;DHT22;7457;50.960;6.830;2023-05-13T14:41:49;21.70;53.50
14733;DHT22;7457;50.960;6.830;2023-05-13T14:44:15;21.80;52.70
14733;DHT22;7457;50.960;6.830;2023-05-13T14:46:40;21.80;52.30
14733;DHT22;7457;50.960;6.830;2023-05-13T14:49:07;21.50;52.10
14733;DHT22;7457;50.960;6.830;2023-05-13T14:51:33;21.10;53.60
14733;DHT22;7457;50.960;6.830;2023-05-13T14:53:59;20.70;55.20
14733;DHT22;7457;50.960;6.830;2023-05-13T14:56:25;20.40;55.20
14733;DHT22;7457;50.960;6.830;2023-05-13T14:58:51;20.00;53.80
14733;DHT22;7457;50.960;6.830;2023-05-13T15:01:17;19.60;55.70
14733;DHT22;7457;50.960;6.830;2023-05-13T15:03:43;19.40;57.20
14733;DHT22;7457;50.960;6.830;2023-05-13T15:06:09;19.40;57.10
14733;DHT22;7457;50.960;6.830;2023-05-13T15:08:35;19.50;57.00
14733;DHT22;7457;50.960;6.830;2023-05-13T15:11:02;19.60;57.60
14733;DHT22;7457;50.960;6.830;2023-05-13T15:13:27;19.70;57.90
14733;DHT22;7457;50.960;6.830;2023-05-13T15:15:56;19.60;58.20
14733;DHT22;7457;50.960;6.830;2023-05-13T15:18:22;19.60;57.10
14733;DHT22;7457;50.960;6.830;2023-05-13T15:20:48;19.40;55.50
14733;DHT22;7457;50.960;6.830;2023-05-13T15:23:13;19.10;55.30
14733;DHT22;7457;50.960;6.830;2023-05-13T15:25:39;18.90;56.10
14733;DHT22;7457;50.960;6.830;2023-05-13T15:28:05;18.70;57.20
14733;DHT22;7457;50.960;6.830;2023-05-13T15:30:30;18.60;58.50
14733;DHT22;7457;50.960;6.830;2023-05-13T15:32:56;18.60;58.80
14733;DHT22;7457;50.960;6.830;2023-05-13T15:35:22;18.60;58.80
14733;DHT22;7457;50.960;6.830;2023-05-13T15:37:47;18.70;59.30
14733;DHT22;7457;50.960;6.830;2023-05-13T15:40:13;18.80;59.50
14733;DHT22;7457;50.960;6.830;2023-05-13T15:42:39;19.00;59.10
14733;DHT22;7457;50.960;6.830;2023-05-13T15:45:06;19.10;60.10
14733;DHT22;7457;50.960;6.830;2023-05-13T15:47:31;19.40;59.30
14733;DHT22;7457;50.960;6.830;2023-05-13T15:49:57;19.60;57.60
14733;DHT22;7457;50.960;6.830;2023-05-13T15:52:23;19.80;57.00
14733;DHT22;7457;50.960;6.830;2023-05-13T15:54:49;20.00;56.10
14733;DHT22;7457;50.960;6.830;2023-05-13T15:57:14;20.10;55.60
14733;DHT22;7457;50.960;6.830;2023-05-13T15:59:42;20.20;54.90
14733;DHT22;7457;50.960;6.830;2023-05-13T16:02:08;20.10;54.80
14733;DHT22;7457;50.960;6.830;2023-05-13T16:04:33;20.10;54.60
14733;DHT22;7457;50.960;6.830;2023-05-13T16:06:59;20.00;54.30
14733;DHT22;7457;50.960;6.830;2023-05-13T16:09:25;19.90;53.40